createdAt,value
2023-05-22T00:01:20.137Z,89.5965
2023-05-22T00:02:22.415Z,89.6437
2023-05-22T00:03:23.580Z,89.7568
2023-05-22T00:04:25.561Z,90.0299
2023-05-22T00:05:27.620Z,90.1647
2023-05-22T00:19:44.210Z,91.2775
2023-05-22T00:20:45.413Z,91.4003
2023-05-22T00:21:47.657Z,91.5498
2023-05-22T00:22:48.903Z,91.4078
2023-05-22T00:23:50.509Z,91.2147
2023-05-22T00:24:51.736Z,91.4477
2023-05-22T00:25:52.660Z,91.5752
2023-05-22T00:26:54.574Z,91.6791
2023-05-22T00:28:07.665Z,91.9080
2023-05-22T00:30:28.721Z,92.0159
2023-05-22T00:31:31.555Z,92.2129
2023-05-22T00:32:32.416Z,92.3511
2023-05-22T00:39:42.846Z,93.2340
2023-05-22T00:40:44.611Z,93.3423
2023-05-22T00:50:31.845Z,94.7139
2023-05-22T00:51:36.505Z,94.8677
2023-05-22T00:58:42.158Z,96.2690
2023-05-22T00:59:44.313Z,96.3856
2023-05-22T01:00:44.909Z,96.4816
2023-05-22T01:01:47.070Z,96.5477
2023-05-22T01:09:25.235Z,96.8458
2023-05-22T01:10:25.970Z,96.8567
2023-05-22T01:11:27.741Z,96.8677
2023-05-22T01:12:29.117Z,96.8789
2023-05-22T01:13:30.333Z,96.8821
2023-05-22T01:19:07.895Z,96.8948
2023-05-22T01:20:08.907Z,96.8995
2023-05-22T01:21:09.290Z,96.8915
2023-05-22T01:22:10.505Z,96.8740
2023-05-22T01:23:10.803Z,96.7955
2023-05-22T01:24:13.035Z,96.7511
2023-05-22T01:25:14.518Z,96.6591
2023-05-22T01:26:16.043Z,96.5553
2023-05-22T01:27:17.199Z,96.4630
2023-05-22T01:28:19.284Z,96.3509
2023-05-22T01:29:20.539Z,96.3909
2023-05-22T01:30:21.949Z,96.4008
2023-05-22T01:31:22.224Z,96.3115
2023-05-22T01:32:23.284Z,96.2671
2023-05-22T01:33:25.220Z,96.3604
2023-05-22T01:34:27.088Z,96.4111
2023-05-22T01:35:29.226Z,96.3985
2023-05-22T01:37:32.328Z,96.5051
2023-05-22T01:38:34.034Z,96.5541
2023-05-22T01:39:35.284Z,96.5432
2023-05-22T01:40:37.013Z,96.4962
2023-05-22T01:41:38.736Z,96.5062
2023-05-22T01:42:40.572Z,96.5166
2023-05-22T01:43:41.351Z,96.5087
2023-05-22T01:45:42.354Z,96.4005
2023-05-22T01:47:42.525Z,96.2278
2023-05-22T01:48:45.139Z,96.1697
2023-05-22T01:49:46.592Z,96.0657
2023-05-22T01:51:49.809Z,95.7008
2023-05-22T01:52:51.690Z,95.7317
2023-05-22T01:54:55.561Z,95.9727
2023-05-22T02:15:14.839Z,95.6477
2023-05-22T02:17:16.794Z,95.7434
2023-05-22T02:21:23.825Z,95.7509
2023-05-22T02:22:24.847Z,96.1078
2023-05-22T02:23:26.286Z,96.3398
2023-05-22T02:24:27.034Z,96.5228
2023-05-22T02:25:29.133Z,96.7698
2023-05-22T02:26:31.350Z,96.9851
2023-05-22T02:27:32.381Z,97.0823
2023-05-22T02:29:35.535Z,97.1401
2023-05-22T02:30:37.448Z,97.1220
2023-05-22T02:32:39.707Z,96.9954
2023-05-22T02:33:41.147Z,96.9446
2023-05-22T02:34:42.928Z,97.0014
2023-05-22T02:37:47.447Z,97.2367
2023-05-22T02:39:49.938Z,97.3012
2023-05-22T02:41:51.989Z,97.3545
2023-05-22T02:43:53.976Z,97.3301
2023-05-22T02:44:55.623Z,97.2896
2023-05-22T02:45:57.691Z,97.2660
2023-05-22T02:47:00.435Z,97.2901
2023-05-22T02:48:00.582Z,97.3308
2023-05-22T02:49:01.888Z,97.3709
2023-05-22T02:50:02.336Z,97.4045
2023-05-22T02:51:02.429Z,97.4239
2023-05-22T02:52:05.830Z,97.4181
2023-05-22T02:53:05.847Z,97.4462
2023-05-22T02:54:07.462Z,97.4840
2023-05-22T02:55:09.151Z,97.5245
2023-05-22T02:56:09.322Z,97.5599
2023-05-22T02:57:10.463Z,97.5967
2023-05-22T02:58:25.802Z,97.6522
2023-05-22T03:00:44.295Z,97.7298
2023-05-22T03:01:46.432Z,97.7428
2023-05-22T03:02:46.261Z,97.7225
2023-05-22T03:04:50.473Z,97.7197
2023-05-22T03:05:51.166Z,97.7209
2023-05-22T03:06:52.473Z,97.7426
2023-05-22T03:07:53.855Z,97.8023
2023-05-22T03:11:55.490Z,97.8931
2023-05-22T03:12:55.568Z,97.8964
2023-05-22T03:13:57.762Z,97.8848
2023-05-22T03:14:59.213Z,97.8709
2023-05-22T03:16:00.710Z,97.8335
2023-05-22T03:18:03.881Z,97.7722
2023-05-22T03:19:05.649Z,97.7164
2023-05-22T03:25:11.072Z,97.3427
2023-05-22T03:26:12.983Z,97.2824
2023-05-22T03:27:14.099Z,97.2590
2023-05-22T03:28:16.284Z,97.2696
2023-05-22T03:29:16.609Z,97.3013
2023-05-22T03:30:16.824Z,97.3388
2023-05-22T03:32:20.596Z,97.4066
2023-05-22T03:33:21.264Z,97.4278
2023-05-22T03:34:21.448Z,97.4336
2023-05-22T03:37:24.066Z,97.4777
2023-05-22T03:38:26.002Z,97.5236
2023-05-22T03:39:27.142Z,97.6144
2023-05-22T03:40:28.531Z,97.7205
2023-05-22T03:41:28.961Z,97.8103
2023-05-22T03:42:30.637Z,97.8651
2023-05-22T03:44:32.395Z,97.9383
2023-05-22T03:45:38.990Z,97.9673
2023-05-22T03:52:41.529Z,98.0248
2023-05-22T03:53:42.955Z,98.0321
2023-05-22T03:54:44.613Z,98.0213
2023-05-22T03:55:46.552Z,98.0107
2023-05-22T03:56:49.129Z,98.0110
2023-05-22T04:05:58.460Z,98.2149
2023-05-22T04:10:02.488Z,98.2494
2023-05-22T04:11:02.831Z,98.2417
2023-05-22T04:12:04.069Z,98.2535
2023-05-22T04:13:04.542Z,98.2505
2023-05-22T04:14:07.854Z,98.2544
2023-05-22T04:15:09.263Z,98.2591
2023-05-22T04:16:10.033Z,98.2672
2023-05-22T04:17:12.286Z,98.2579
2023-05-22T04:18:12.728Z,98.2551
2023-05-22T04:19:13.080Z,98.2634
2023-05-22T04:20:15.656Z,98.2562
2023-05-22T04:21:16.630Z,98.2472
2023-05-22T04:22:18.207Z,98.2511
2023-05-22T04:23:20.538Z,98.2339
2023-05-22T04:24:21.393Z,98.2390
2023-05-22T04:25:24.135Z,98.2425
2023-05-22T04:26:24.002Z,98.2377
2023-05-22T04:41:44.654Z,98.2489
2023-05-22T04:42:46.474Z,98.2391
2023-05-22T04:43:48.450Z,98.2322
2023-05-22T04:44:49.563Z,98.2175
2023-05-22T04:45:51.982Z,98.2048
2023-05-22T04:56:04.229Z,97.9898
2023-05-22T04:57:06.397Z,98.0007
2023-05-22T05:03:14.908Z,98.0591
2023-05-22T05:07:19.280Z,98.1082
2023-05-22T05:08:21.285Z,98.1257
2023-05-22T05:24:40.337Z,98.1404
2023-05-22T05:25:42.226Z,98.1094
2023-05-22T05:26:43.385Z,98.0676
2023-05-22T05:27:44.683Z,98.0518
2023-05-22T05:28:46.415Z,97.9938
2023-05-22T05:29:46.876Z,97.8893
2023-05-22T05:31:50.257Z,97.5039
2023-05-22T05:32:50.179Z,97.3951
2023-05-22T05:42:01.172Z,96.5279
2023-05-22T05:43:02.120Z,96.2211
2023-05-22T05:51:09.566Z,94.7916
2023-05-22T05:52:11.082Z,95.7532
2023-05-22T06:01:22.635Z,92.5611
2023-05-22T06:02:24.326Z,92.5542
2023-05-22T06:03:28.488Z,92.6061
2023-05-22T06:11:35.066Z,93.4559
2023-05-22T06:12:36.493Z,92.8355
2023-05-22T06:13:38.214Z,93.3239
2023-05-22T06:14:39.746Z,92.9596
2023-05-22T06:15:41.683Z,92.6643
2023-05-22T06:16:44.627Z,93.2792
2023-05-22T06:17:44.616Z,94.8015
2023-05-22T06:18:44.725Z,94.2065
2023-05-22T06:19:46.253Z,93.8280
2023-05-22T06:20:47.469Z,92.5198
2023-05-22T06:21:53.000Z,90.3964
2023-05-22T06:22:50.897Z,91.0495
2023-05-22T06:23:52.857Z,90.6411
2023-05-22T06:24:54.096Z,89.3776
2023-05-22T06:26:57.498Z,89.2755
2023-05-22T06:27:59.712Z,89.3405
2023-05-22T06:29:03.226Z,89.8194
2023-05-22T06:36:08.588Z,90.2512
2023-05-22T06:37:10.584Z,89.1677
2023-05-22T06:38:11.810Z,88.9708
2023-05-22T06:39:11.986Z,89.0180
2023-05-22T06:44:46.891Z,90.7481
2023-05-22T06:45:49.146Z,88.1825
2023-05-22T06:52:55.260Z,89.0879
2023-05-22T07:05:09.571Z,88.8365
2023-05-22T07:06:11.976Z,86.8865
2023-05-22T07:07:14.400Z,85.8477
2023-05-22T07:31:45.546Z,84.3096
2023-05-22T07:32:45.655Z,81.3509
2023-05-22T07:33:46.707Z,84.7229
2023-05-22T07:34:48.287Z,82.8771
2023-05-22T07:35:49.668Z,84.1704
2023-05-22T07:36:50.697Z,80.9631
2023-05-22T07:39:54.491Z,79.4123
2023-05-22T07:40:56.576Z,81.9600
2023-05-22T07:42:01.536Z,78.3073
2023-05-22T07:48:03.157Z,79.0940
2023-05-22T07:49:03.869Z,78.6568
2023-05-22T07:50:04.656Z,80.5308
2023-05-22T07:51:06.096Z,77.7873
2023-05-22T07:52:07.886Z,77.0525
2023-05-22T07:53:08.502Z,79.9894
2023-05-22T07:54:09.890Z,80.7774
2023-05-22T07:55:09.893Z,81.0170
2023-05-22T07:56:11.804Z,83.6178
2023-05-22T07:57:13.887Z,80.7879
2023-05-22T07:58:16.783Z,80.7382
2023-05-22T07:59:17.774Z,78.6388
2023-05-22T08:00:19.913Z,73.9155
2023-05-22T08:01:20.496Z,74.4125
2023-05-22T08:04:24.371Z,76.8364
2023-05-22T08:05:25.170Z,72.2149
2023-05-22T08:06:25.570Z,72.2831
2023-05-22T08:07:27.567Z,82.8897
2023-05-22T08:08:32.250Z,84.4010
2023-05-22T08:29:30.828Z,71.3268
2023-05-22T08:30:31.084Z,72.6870
2023-05-22T08:31:32.635Z,69.5747
2023-05-22T08:32:32.894Z,71.8992
2023-05-22T08:33:34.291Z,70.0379
2023-05-22T08:34:35.662Z,69.1754
2023-05-22T08:35:37.387Z,70.7457
2023-05-22T08:36:38.957Z,71.5288
2023-05-22T08:37:40.283Z,69.8294
2023-05-22T08:38:42.041Z,72.5758
2023-05-22T08:39:43.546Z,68.2554
2023-05-22T08:40:47.082Z,67.9491
2023-05-22T08:42:48.575Z,68.1980
2023-05-22T08:43:50.448Z,67.1157
2023-05-22T08:44:51.959Z,69.8537
2023-05-22T08:45:53.526Z,67.5279
2023-05-22T08:46:55.233Z,66.7786
2023-05-22T08:47:57.226Z,66.5678
2023-05-22T08:48:59.258Z,67.2636
2023-05-22T08:50:00.034Z,67.5091
2023-05-22T08:51:00.329Z,70.0052
2023-05-22T08:52:01.777Z,67.7998
2023-05-22T08:53:02.906Z,67.9497
2023-05-22T08:54:03.106Z,66.4616
2023-05-22T08:55:04.574Z,64.6352
2023-05-22T08:56:06.429Z,68.0489
2023-05-22T08:57:08.018Z,68.3167
2023-05-22T08:58:08.669Z,64.2633
2023-05-22T08:59:10.004Z,63.5577
2023-05-22T09:00:10.436Z,63.1841
2023-05-22T09:01:12.334Z,61.8491
2023-05-22T09:02:14.154Z,65.0415
2023-05-22T09:03:15.670Z,62.9032
2023-05-22T09:04:17.558Z,62.6462
2023-05-22T09:05:19.403Z,66.7667
2023-05-22T09:06:21.227Z,66.5775
2023-05-22T09:07:23.020Z,67.2069
2023-05-22T09:08:25.084Z,70.6426
2023-05-22T09:09:26.616Z,68.4669
2023-05-22T09:10:27.077Z,70.1786
2023-05-22T09:11:28.892Z,74.4946
2023-05-22T09:12:30.229Z,64.3774
2023-05-22T09:13:32.077Z,63.6193
2023-05-22T09:14:33.513Z,62.9307
2023-05-22T09:15:35.091Z,60.0857
2023-05-22T09:16:35.824Z,66.8964
2023-05-22T09:20:42.356Z,66.7228
2023-05-22T09:21:42.870Z,67.2671
2023-05-22T09:22:43.733Z,73.4825
2023-05-22T09:23:45.551Z,75.7917
2023-05-22T09:24:47.274Z,76.3687
2023-05-22T09:25:49.244Z,71.7735
2023-05-22T09:26:51.280Z,63.5902
2023-05-22T09:27:52.876Z,65.3386
2023-05-22T09:28:54.278Z,62.7599
2023-05-22T09:30:56.585Z,67.7640
2023-05-22T09:31:56.918Z,64.3924
2023-05-22T09:32:58.937Z,67.6212
2023-05-22T09:33:59.332Z,65.0451
2023-05-22T09:35:01.124Z,74.0757
2023-05-22T09:36:02.129Z,60.3876
2023-05-22T09:37:03.998Z,63.4378
2023-05-22T09:38:05.025Z,60.0022
2023-05-22T09:42:11.409Z,66.7467
2023-05-22T09:43:11.658Z,72.1878
2023-05-22T09:44:12.781Z,71.5692
2023-05-22T09:45:14.139Z,61.2062
2023-05-22T09:46:15.182Z,61.9476
2023-05-22T09:47:17.207Z,64.0493
2023-05-22T09:48:17.392Z,68.2379
2023-05-22T09:49:19.550Z,65.5025
2023-05-22T09:52:23.725Z,69.2048
2023-05-22T09:54:27.302Z,60.8407
2023-05-22T09:55:27.488Z,64.9199
2023-05-22T09:57:29.774Z,63.9863
2023-05-22T09:58:31.492Z,63.5554
2023-05-22T09:59:33.033Z,70.2303
2023-05-22T10:00:34.726Z,76.6986
2023-05-22T10:01:35.264Z,75.5474
2023-05-22T10:02:35.951Z,73.7049
2023-05-22T10:03:37.702Z,67.0859
2023-05-22T10:04:39.775Z,61.6167
2023-05-22T10:05:40.082Z,60.4928
2023-05-22T10:08:44.310Z,56.2097
2023-05-22T10:09:46.345Z,60.6711
2023-05-22T10:10:47.624Z,58.9111
2023-05-22T10:11:49.484Z,62.4547
2023-05-22T10:12:51.361Z,61.8151
2023-05-22T10:13:53.572Z,63.6570
2023-05-22T10:14:54.536Z,63.8537
2023-05-22T10:15:56.426Z,64.2074
2023-05-22T10:16:58.095Z,67.2414
2023-05-22T10:17:59.716Z,69.1047
2023-05-22T10:20:01.173Z,64.1375
2023-05-22T10:21:02.399Z,70.9325
2023-05-22T10:22:02.654Z,68.0755
2023-05-22T10:23:04.314Z,70.0875
2023-05-22T10:24:05.137Z,64.0131
2023-05-22T10:25:10.850Z,69.5605
2023-05-22T10:37:22.778Z,63.7071
2023-05-22T10:38:24.374Z,66.4240
2023-05-22T10:39:24.840Z,64.0720
2023-05-22T10:40:27.450Z,64.0260
2023-05-22T10:41:28.858Z,61.8465
2023-05-22T10:42:30.572Z,63.2416
2023-05-22T10:43:30.639Z,70.6249
2023-05-22T10:44:31.094Z,72.4028
2023-05-22T10:45:32.846Z,73.4798
2023-05-22T10:46:32.830Z,63.8991
2023-05-22T10:47:33.366Z,61.1556
2023-05-22T10:48:34.218Z,65.1141
2023-05-22T10:50:37.113Z,62.4933
2023-05-22T10:51:38.734Z,58.8062
2023-05-22T10:52:40.138Z,58.4466
2023-05-22T10:53:41.883Z,60.3953
2023-05-22T10:56:46.692Z,58.8632
2023-05-22T10:57:48.345Z,63.1068
2023-05-22T10:58:50.163Z,59.4051
2023-05-22T10:59:51.681Z,63.0625
2023-05-22T11:00:53.345Z,59.9605
2023-05-22T11:01:54.300Z,62.2922
2023-05-22T11:12:04.777Z,74.2066
2023-05-22T11:13:05.734Z,66.4674
2023-05-22T11:14:07.655Z,71.0048
2023-05-22T11:15:08.535Z,68.8505
2023-05-22T11:16:09.912Z,63.8967
2023-05-22T11:17:12.860Z,57.9438
2023-05-22T11:21:13.845Z,68.4875
2023-05-22T11:37:32.515Z,60.5394
2023-05-22T11:38:34.176Z,62.5178
2023-05-22T11:39:34.670Z,64.4467
2023-05-22T11:41:36.045Z,63.2499
2023-05-22T11:42:36.385Z,63.7921
2023-05-22T11:43:37.468Z,68.8045
2023-05-22T11:44:39.551Z,66.1452
2023-05-22T11:45:40.592Z,73.9769
2023-05-22T11:46:41.971Z,74.6234
2023-05-22T11:47:43.810Z,61.3657
2023-05-22T11:48:45.837Z,57.4578
2023-05-22T11:49:46.146Z,71.2283
2023-05-22T11:50:48.293Z,70.6877
2023-05-22T11:51:48.888Z,68.4440
2023-05-22T11:52:49.813Z,62.8425
2023-05-22T11:54:51.912Z,55.1488
2023-05-22T11:55:53.032Z,60.1256
2023-05-22T11:56:54.725Z,57.0593
2023-05-22T11:57:56.228Z,62.3755
2023-05-22T11:58:56.428Z,63.8073
2023-05-22T11:59:57.204Z,66.0470
2023-05-22T12:00:57.269Z,64.0719
2023-05-22T12:01:58.289Z,65.1922
2023-05-22T12:03:00.080Z,60.1973
2023-05-22T12:04:00.454Z,58.2757
2023-05-22T12:05:01.554Z,57.9972
2023-05-22T12:06:03.467Z,61.7921
2023-05-22T12:07:04.432Z,58.9206
2023-05-22T12:08:05.041Z,54.0892
2023-05-22T12:11:10.580Z,55.6089
2023-05-22T12:12:11.202Z,56.6140
2023-05-22T12:13:11.241Z,53.8624
2023-05-22T12:15:13.934Z,55.9297
2023-05-22T12:16:14.584Z,63.5725
2023-05-22T12:18:15.068Z,57.9939
2023-05-22T12:19:16.329Z,55.4441
2023-05-22T12:20:18.215Z,58.7631
2023-05-22T12:21:18.794Z,55.2668
2023-05-22T12:22:22.586Z,59.7326
2023-05-22T12:23:20.700Z,52.9679
2023-05-22T12:24:21.542Z,52.2589
2023-05-22T12:25:21.565Z,63.4146
2023-05-22T12:26:23.735Z,64.2390
2023-05-22T12:27:24.898Z,60.2940
2023-05-22T12:28:26.906Z,53.7061
2023-05-22T12:29:28.814Z,53.6682
2023-05-22T12:30:30.719Z,59.7179
2023-05-22T12:31:32.820Z,63.7276
2023-05-22T12:32:33.066Z,51.3917
2023-05-22T12:33:35.088Z,56.2211
2023-05-22T12:34:36.691Z,49.5369
2023-05-22T12:35:38.295Z,50.8486
2023-05-22T12:36:38.538Z,52.9777
2023-05-22T12:37:40.643Z,55.6391
2023-05-22T12:38:41.172Z,58.6057
2023-05-22T12:39:42.142Z,55.6035
2023-05-22T12:40:43.909Z,57.3331
2023-05-22T12:41:44.500Z,61.3148
2023-05-22T12:42:45.570Z,56.9816
2023-05-22T12:47:53.692Z,55.9496
2023-05-22T12:48:55.442Z,56.5894
2023-05-22T12:49:56.815Z,52.9362
2023-05-22T12:50:57.263Z,62.2534
2023-05-22T12:51:57.920Z,54.4023
2023-05-22T12:52:58.053Z,67.1416
2023-05-22T12:53:59.186Z,68.7192
2023-05-22T12:55:00.590Z,61.3087
2023-05-22T12:56:00.908Z,58.8451
2023-05-22T12:57:02.944Z,57.5995
2023-05-22T12:58:02.977Z,57.7171
2023-05-22T13:00:05.312Z,53.6759
2023-05-22T13:01:06.778Z,56.2669
2023-05-22T13:02:08.184Z,50.0384
2023-05-22T13:03:09.897Z,50.8643
2023-05-22T13:04:11.275Z,57.2186
2023-05-22T13:05:11.803Z,56.2525
2023-05-22T13:06:13.380Z,55.2283
2023-05-22T13:07:14.397Z,54.2682
2023-05-22T13:08:14.601Z,47.0315
2023-05-22T13:09:15.081Z,48.2117
2023-05-22T13:10:16.408Z,50.0991
2023-05-22T13:11:17.576Z,58.0090
2023-05-22T13:12:18.031Z,55.1509
2023-05-22T13:13:19.002Z,50.2562
2023-05-22T13:14:20.761Z,55.0195
2023-05-22T13:15:22.356Z,46.1969
2023-05-22T13:16:23.129Z,47.6892
2023-05-22T13:18:25.340Z,56.0235
2023-05-22T13:19:27.574Z,57.0048
2023-05-22T13:20:28.141Z,51.6894
2023-05-22T13:21:29.545Z,50.6003
2023-05-22T13:22:30.149Z,51.3299
2023-05-22T13:23:30.196Z,53.5799
2023-05-22T13:24:30.518Z,53.2058
2023-05-22T13:25:31.194Z,55.8162
2023-05-22T13:26:31.408Z,54.8121
2023-05-22T13:27:34.314Z,51.9022
2023-05-22T13:34:41.230Z,48.9162
2023-05-22T13:37:45.673Z,54.4207
2023-05-22T13:40:48.976Z,50.1768
2023-05-22T13:51:57.949Z,58.3045
2023-05-22T13:52:58.078Z,58.5152
2023-05-22T13:53:58.403Z,64.3653
2023-05-22T13:54:59.928Z,55.8197
2023-05-22T13:56:01.436Z,48.6827
2023-05-22T14:03:09.553Z,49.5351
2023-05-22T14:05:10.201Z,61.0769
2023-05-22T14:06:13.811Z,54.6714
2023-05-22T14:07:13.861Z,53.3088
2023-05-22T14:08:15.708Z,49.3761
2023-05-22T14:09:17.248Z,55.0612
2023-05-22T14:11:20.449Z,62.2904
2023-05-22T14:12:21.166Z,52.8189
2023-05-22T14:13:22.635Z,50.7449
2023-05-22T14:15:26.742Z,57.5243
2023-05-22T14:16:28.109Z,63.1628
2023-05-22T14:17:29.402Z,57.3014
2023-05-22T14:18:30.802Z,58.2892
2023-05-22T14:19:33.395Z,57.9412
2023-05-22T14:20:33.553Z,49.3029
2023-05-22T14:21:35.681Z,51.5142
2023-05-22T14:22:55.895Z,54.2553
2023-05-22T14:26:08.789Z,49.3135
2023-05-22T14:27:11.095Z,48.7336
2023-05-22T14:28:10.976Z,57.5400
2023-05-22T14:29:10.970Z,60.2268
2023-05-22T14:30:12.989Z,55.4686
2023-05-22T14:31:14.331Z,53.3331
2023-05-22T14:32:16.389Z,52.0628
2023-05-22T14:33:17.950Z,54.9720
2023-05-22T14:34:19.684Z,53.0480
2023-05-22T14:35:21.357Z,58.2501
2023-05-22T14:36:21.647Z,53.3661
2023-05-22T14:37:23.155Z,53.8643
2023-05-22T14:38:23.689Z,60.4941
2023-05-22T14:39:25.573Z,55.2721
2023-05-22T14:40:27.143Z,49.1713
2023-05-22T14:41:27.401Z,46.9103
2023-05-22T14:42:28.901Z,48.2877
2023-05-22T14:43:30.207Z,49.9837
2023-05-22T14:44:31.720Z,45.7245
2023-05-22T14:45:33.248Z,53.3984
2023-05-22T14:46:35.091Z,45.0688
2023-05-22T14:47:36.321Z,50.3009
2023-05-22T14:48:37.247Z,50.0061
2023-05-22T14:49:37.973Z,49.4684
2023-05-22T14:50:39.274Z,46.8383
2023-05-22T14:51:40.730Z,48.4021
2023-05-22T14:52:41.152Z,47.8157
2023-05-22T14:53:42.744Z,45.2162
2023-05-22T14:54:44.192Z,51.1074
2023-05-22T14:55:45.536Z,45.1693
2023-05-22T14:56:47.363Z,48.8231
2023-05-22T14:57:48.730Z,46.6430
2023-05-22T14:58:49.695Z,49.7499
2023-05-22T14:59:50.959Z,43.9949
2023-05-22T15:00:52.280Z,45.4232
2023-05-22T15:01:53.927Z,44.9987
2023-05-22T15:02:55.676Z,51.1518
2023-05-22T15:03:57.013Z,46.2259
2023-05-22T15:04:58.785Z,50.9114
2023-05-22T15:05:59.186Z,49.8080
2023-05-22T15:08:02.261Z,45.8618
2023-05-22T15:09:03.872Z,45.0184
2023-05-22T15:10:04.491Z,47.4268
2023-05-22T15:11:05.736Z,47.7541
2023-05-22T15:12:08.467Z,46.1913
2023-05-22T15:14:09.462Z,48.0788
2023-05-22T15:17:13.292Z,44.2948
2023-05-22T15:24:21.361Z,53.7776
2023-05-22T15:25:22.655Z,50.1701
2023-05-22T15:26:23.467Z,52.7641
2023-05-22T15:27:24.820Z,53.0004
2023-05-22T15:30:27.717Z,53.4156
2023-05-22T15:31:29.657Z,55.2609
2023-05-22T15:32:31.328Z,62.3360
2023-05-22T15:33:33.493Z,69.5113
2023-05-22T15:34:35.274Z,57.8340
2023-05-22T15:35:36.625Z,57.7286
2023-05-22T15:36:36.784Z,57.2108
2023-05-22T15:37:37.275Z,56.5563
2023-05-22T15:38:38.824Z,70.7729
2023-05-22T15:39:40.251Z,70.2500
2023-05-22T15:40:42.358Z,66.6387
2023-05-22T15:42:02.413Z,70.0962
2023-05-22T16:11:57.016Z,61.9159
2023-05-22T16:12:58.497Z,59.4628
2023-05-22T16:14:00.636Z,58.9232
2023-05-22T16:20:09.969Z,55.0502
2023-05-22T16:21:11.594Z,54.1344
2023-05-22T16:22:12.674Z,54.5509
2023-05-22T16:23:14.726Z,56.1599
2023-05-22T16:24:16.638Z,55.1047
2023-05-22T16:25:18.560Z,47.7592
2023-05-22T16:26:18.632Z,50.8768
2023-05-22T16:27:20.441Z,52.8820
2023-05-22T16:28:22.268Z,56.8472
2023-05-22T16:29:24.297Z,52.7097
2023-05-22T16:30:26.447Z,53.7444
2023-05-22T16:31:26.607Z,49.7602
2023-05-22T16:32:28.631Z,45.7117
2023-05-22T16:33:28.566Z,53.7738
2023-05-22T16:34:30.703Z,49.3728
2023-05-22T16:35:32.555Z,55.5063
2023-05-22T16:36:34.102Z,45.7912
2023-05-22T16:37:35.587Z,44.0951
2023-05-22T16:38:37.344Z,44.9680
2023-05-22T16:39:39.110Z,48.8001
2023-05-22T16:40:40.941Z,49.7041
2023-05-22T17:02:05.143Z,54.9510
2023-05-22T17:03:07.398Z,41.5462
2023-05-22T17:04:09.127Z,42.8277
2023-05-22T17:05:09.702Z,42.3387
2023-05-22T17:06:11.852Z,42.5240
2023-05-22T17:07:12.165Z,42.5921
2023-05-22T17:08:14.061Z,46.5015
2023-05-22T17:09:16.144Z,56.6359
2023-05-22T17:10:16.577Z,46.7012
2023-05-22T17:14:22.353Z,45.6222
2023-05-22T17:15:22.869Z,46.0555
2023-05-22T17:16:24.860Z,50.3106
2023-05-22T17:17:26.543Z,49.6446
2023-05-22T17:18:28.390Z,43.1408
2023-05-22T17:19:29.229Z,49.3423
2023-05-22T17:20:31.082Z,53.8800
2023-05-22T17:21:33.406Z,56.7779
2023-05-22T17:22:34.266Z,60.8067
2023-05-22T17:23:34.987Z,58.9910
2023-05-22T17:24:35.680Z,47.8300
2023-05-22T17:25:38.001Z,44.1730
2023-05-22T17:26:37.855Z,52.8726
2023-05-22T17:27:37.987Z,56.6505
2023-05-22T17:28:38.056Z,52.3006
2023-05-22T17:29:39.967Z,48.2061
2023-05-22T17:30:40.119Z,55.3690
2023-05-22T17:43:57.514Z,63.8322
2023-05-22T17:44:57.714Z,60.9967
2023-05-22T17:45:58.832Z,63.0937
2023-05-22T17:46:59.552Z,61.4108
2023-05-22T17:47:59.817Z,62.5488
2023-05-22T17:49:01.883Z,62.2420
2023-05-22T17:50:04.057Z,64.3589
2023-05-22T17:51:04.408Z,66.3739
2023-05-22T17:52:05.249Z,71.7690
2023-05-22T17:53:06.962Z,71.2636
2023-05-22T17:54:08.722Z,69.5718
2023-05-22T17:55:10.390Z,71.9898
2023-05-22T17:56:12.629Z,65.9549
2023-05-22T17:57:14.193Z,64.6650
2023-05-22T17:58:14.589Z,71.7827
2023-05-22T17:59:16.453Z,69.3772
2023-05-22T18:00:18.224Z,65.6773
2023-05-22T18:01:19.659Z,67.0943
2023-05-22T18:02:21.119Z,74.7924
2023-05-22T18:03:21.979Z,77.4651
2023-05-22T18:04:21.809Z,77.3969
2023-05-22T18:05:22.951Z,76.5437
2023-05-22T18:06:24.774Z,77.0445
2023-05-22T18:07:25.987Z,73.6590
2023-05-22T18:08:27.405Z,66.3999
2023-05-22T18:09:28.738Z,75.2275
2023-05-22T18:10:29.954Z,74.8772
2023-05-22T18:11:30.961Z,73.1516
2023-05-22T18:12:32.762Z,70.9731
2023-05-22T18:13:33.928Z,75.5296
2023-05-22T18:14:35.462Z,77.0518
2023-05-22T18:15:36.464Z,74.9656
2023-05-22T18:16:36.963Z,72.4026
2023-05-22T18:17:38.299Z,69.0780
2023-05-22T18:18:39.470Z,74.4418
2023-05-22T18:19:40.081Z,77.1704
2023-05-22T18:20:41.934Z,79.8482
2023-05-22T18:24:46.508Z,80.3692
2023-05-22T18:25:57.537Z,79.0165
2023-05-22T18:30:20.813Z,80.2392
2023-05-22T18:31:23.771Z,80.0951
2023-05-22T18:32:23.338Z,82.7752
2023-05-22T18:33:24.775Z,81.8200
2023-05-22T18:34:26.066Z,81.8167
2023-05-22T18:35:27.413Z,79.3916
2023-05-22T18:36:27.788Z,80.0666
2023-05-22T18:42:33.821Z,81.6550
2023-05-22T18:43:35.504Z,82.8279
2023-05-22T18:44:36.912Z,82.8891
2023-05-22T18:45:38.623Z,85.3627
2023-05-22T18:46:40.922Z,85.4759
2023-05-22T18:55:51.214Z,83.9109
2023-05-22T18:56:51.189Z,81.2989
2023-05-22T18:58:51.997Z,79.7592
2023-05-22T18:59:53.179Z,83.7122
2023-05-22T19:00:54.745Z,84.1754
2023-05-22T19:01:57.178Z,84.6981
2023-05-22T19:23:19.722Z,90.4308
2023-05-22T19:26:22.831Z,90.0093
2023-05-22T19:27:23.827Z,90.3246
2023-05-22T19:28:24.882Z,90.6667
2023-05-22T19:29:26.506Z,89.5820
2023-05-22T19:30:27.588Z,89.4896
2023-05-22T19:31:28.870Z,89.7093
2023-05-22T19:32:29.644Z,90.1024
2023-05-22T19:33:30.765Z,89.9262
2023-05-22T19:34:31.900Z,89.8564
2023-05-22T19:35:33.238Z,90.0149
2023-05-22T19:36:34.870Z,90.3033
2023-05-22T19:37:39.714Z,90.5653
2023-05-22T19:40:08.711Z,92.1505
2023-05-22T19:47:19.020Z,92.0541
2023-05-22T19:48:18.881Z,92.1869
2023-05-22T20:01:35.433Z,92.7327
2023-05-22T20:03:38.079Z,92.7094
2023-05-22T20:10:45.854Z,93.3709
2023-05-22T20:11:46.926Z,93.4873
2023-05-22T20:18:54.592Z,93.3661
2023-05-22T20:20:56.127Z,93.8013
2023-05-22T20:21:58.133Z,93.5976
2023-05-22T20:22:59.620Z,93.4609
2023-05-22T20:24:02.171Z,93.3275
2023-05-22T20:25:04.032Z,93.6399
2023-05-22T20:34:13.078Z,93.9873
2023-05-22T20:35:15.221Z,93.9435
2023-05-22T20:38:17.382Z,94.0199
2023-05-22T20:39:19.041Z,94.0796
2023-05-22T20:40:20.038Z,93.9965
2023-05-22T20:41:21.306Z,93.4517
2023-05-22T20:42:23.286Z,93.3276
2023-05-22T20:43:24.768Z,93.3001
2023-05-22T20:56:41.827Z,94.9731
2023-05-22T20:57:43.723Z,95.3006
2023-05-22T20:58:45.680Z,95.4098
2023-05-22T20:59:46.811Z,95.3553
2023-05-22T21:00:48.326Z,95.3344
2023-05-22T21:01:49.458Z,95.5459
2023-05-22T21:02:50.736Z,95.6934
2023-05-22T21:03:52.024Z,95.6304
2023-05-22T21:04:53.483Z,95.6152
2023-05-22T21:05:54.590Z,95.6268
2023-05-22T21:06:55.355Z,95.5261
2023-05-22T21:07:56.509Z,95.3489
2023-05-22T21:08:57.855Z,95.3231
2023-05-22T21:09:59.600Z,95.2625
2023-05-22T21:11:00.271Z,95.2738
2023-05-22T21:12:01.500Z,95.2225
2023-05-22T21:13:01.889Z,95.2907
2023-05-22T21:14:03.010Z,95.3686
2023-05-22T21:15:03.536Z,95.3148
2023-05-22T21:16:04.653Z,95.3399
2023-05-22T21:17:08.426Z,95.0833
2023-05-22T21:25:16.288Z,94.0178
2023-05-22T21:26:17.758Z,93.7869
2023-05-22T21:27:19.614Z,93.9579
2023-05-22T21:28:20.548Z,94.0838
2023-05-22T21:30:23.160Z,94.5800
2023-05-22T21:31:24.199Z,94.6880
2023-05-22T21:32:25.207Z,94.8077
2023-05-22T21:33:26.419Z,94.9790
2023-05-22T21:34:27.375Z,95.1512
2023-05-22T21:38:32.836Z,95.6594
2023-05-22T21:39:35.096Z,95.7046
2023-05-22T21:40:34.887Z,95.7161
2023-05-22T21:42:46.683Z,95.5207
2023-05-22T21:47:11.622Z,95.6637
2023-05-22T21:48:13.307Z,95.7599
2023-05-22T21:57:25.590Z,96.9951
2023-05-22T21:58:27.467Z,97.0378
2023-05-22T21:59:28.642Z,97.0609
2023-05-22T22:00:29.716Z,97.0923
2023-05-22T22:01:31.563Z,97.1173
2023-05-22T22:02:33.075Z,97.1647
2023-05-22T22:04:35.618Z,97.2486
2023-05-22T22:05:37.732Z,97.2910
2023-05-22T22:06:39.349Z,97.3216